Time;durP1;ratioP1;P1;durP2;ratioP2;P2;SDS_P1;SDS_P2;PMS_P1;PMS_P2;Temp;Humidity;BMP_temperature;BMP_pressure;BME280_temperature;BME280_humidity;BME280_pressure;Samples;Min_cycle;Max_cycle;Signal;HPM_P1;HPM_P2
2023/06/01 00:01:59;;;;;;;2.90;1.90;;;14.00;99.90;;;;;;5074163;28;20287;-83
2023/06/01 00:04:25;;;;;;;2.50;2.00;;;14.20;99.90;;;;;;5075468;28;20176;-83
2023/06/01 00:06:50;;;;;;;2.50;2.00;;;14.30;1.00;;;;;;5093881;28;20198;-83
2023/06/01 00:09:17;;;;;;;2.90;1.70;;;14.40;1.00;;;;;;5075603;28;20187;-83
2023/06/01 00:11:42;;;;;;;2.17;1.70;;;14.30;1.00;;;;;;5092972;28;20169;-83
2023/06/01 00:14:08;;;;;;;2.33;1.83;;;14.20;1.00;;;;;;5075584;28;20208;-82
2023/06/01 00:16:34;;;;;;;3.67;1.90;;;14.10;1.00;;;;;;5093913;28;20176;-83
2023/06/01 00:19:03;;;;;;;2.20;1.90;;;14.10;1.00;;;;;;5075310;28;20165;-83
2023/06/01 00:21:31;;;;;;;3.57;2.10;;;14.10;1.00;;;;;;5093111;28;20160;-83
2023/06/01 00:23:57;;;;;;;2.43;1.90;;;14.00;1.00;;;;;;5075105;28;20191;-83
2023/06/01 00:26:22;;;;;;;3.57;2.00;;;13.90;46.00;;;;;;5075525;28;20203;-83
2023/06/01 00:28:48;;;;;;;2.50;1.80;;;14.00;63.20;;;;;;5075389;28;20183;-84
2023/06/01 00:31:13;;;;;;;3.27;1.90;;;14.20;1.00;;;;;;5093047;28;20172;-82
2023/06/01 00:33:39;;;;;;;2.90;1.80;;;14.40;1.00;;;;;;5093276;28;20192;-83
2023/06/01 00:36:05;;;;;;;2.37;1.83;;;14.50;99.90;;;;;;5093440;28;20168;-82
2023/06/01 00:38:30;;;;;;;4.10;1.90;;;14.30;99.90;;;;;;5075154;28;20334;-83
2023/06/01 00:40:56;;;;;;;2.47;1.90;;;14.10;1.00;;;;;;5093068;28;20287;-83
2023/06/01 00:43:21;;;;;;;3.47;1.80;;;14.00;1.00;;;;;;5076134;28;20236;-83
2023/06/01 00:45:47;;;;;;;2.93;2.00;;;13.80;1.00;;;;;;5075100;28;20257;-83
2023/06/01 00:48:15;;;;;;;2.57;1.80;;;13.70;1.00;;;;;;5075144;28;20177;-84
2023/06/01 00:50:41;;;;;;;2.27;1.70;;;13.70;84.90;;;;;;5092291;28;20222;-83
2023/06/01 00:53:12;;;;;;;2.80;1.80;;;13.80;61.20;;;;;;5074700;28;20195;-83
2023/06/01 00:55:38;;;;;;;1.77;1.67;;;13.80;99.90;;;;;;5074677;28;20165;-83
2023/06/01 00:58:06;;;;;;;4.07;2.20;;;13.80;1.00;;;;;;5093035;28;20168;-83
2023/06/01 01:00:32;;;;;;;2.50;1.90;;;13.80;99.90;;;;;;5074401;28;20264;-83
2023/06/01 01:03:00;;;;;;;3.50;1.97;;;13.60;99.90;;;;;;5092736;28;20279;-83
2023/06/01 01:05:26;;;;;;;3.10;2.03;;;13.10;1.00;;;;;;5092734;28;20680;-83
2023/06/01 01:08:30;;;;;;;2.43;2.00;;;13.00;1.00;;;;;;5074693;28;20177;-83
2023/06/01 01:11:04;;;;;;;2.80;2.00;;;12.90;99.90;;;;;;5074303;28;20325;-82
2023/06/01 01:13:48;;;;;;;2.33;2.00;;;13.00;99.90;;;;;;5074082;28;20200;-83
2023/06/01 01:16:27;;;;;;;2.43;1.80;;;13.20;71.80;;;;;;5074381;28;20176;-83
2023/06/01 01:19:00;;;;;;;2.17;1.60;;;13.20;1.00;;;;;;5074822;28;20521;-83
2023/06/01 01:21:31;;;;;;;2.50;2.00;;;13.20;1.00;;;;;;5091644;28;20173;-83
2023/06/01 01:24:24;;;;;;;1.90;1.70;;;13.30;1.00;;;;;;5092329;28;20179;-83
2023/06/01 01:27:02;;;;;;;2.20;1.90;;;13.40;1.00;;;;;;5074810;28;20179;-83
2023/06/01 01:29:31;;;;;;;2.50;2.00;;;13.30;99.90;;;;;;5092536;28;20661;-83
2023/06/01 01:32:00;;;;;;;4.57;2.17;;;12.90;1.00;;;;;;5091829;28;20196;-83
2023/06/01 01:34:28;;;;;;;4.10;2.13;;;12.70;1.00;;;;;;5092184;28;20230;-83
2023/06/01 01:36:54;;;;;;;2.87;1.90;;;12.80;99.90;;;;;;5074038;28;20176;-83
2023/06/01 01:39:20;;;;;;;2.40;1.90;;;12.70;99.90;;;;;;5074328;28;20258;-83
2023/06/01 01:41:45;;;;;;;3.20;2.00;;;12.80;1.00;;;;;;5073786;28;20311;-83
2023/06/01 01:44:14;;;;;;;2.60;2.03;;;12.70;99.90;;;;;;5074061;28;20188;-83
2023/06/01 01:46:56;;;;;;;3.33;1.93;;;12.30;99.90;;;;;;5074131;28;20259;-83
2023/06/01 01:49:30;;;;;;;1.83;1.70;;;12.40;99.90;;;;;;5073928;28;20183;-83
2023/06/01 01:52:01;;;;;;;3.67;2.03;;;12.30;99.90;;;;;;5091888;28;20282;-83
2023/06/01 01:54:27;;;;;;;3.33;2.13;;;12.20;99.90;;;;;;5092213;28;20227;-83
2023/06/01 01:56:57;;;;;;;3.27;1.90;;;11.90;21.70;;;;;;5074066;28;20547;-83
2023/06/01 01:59:24;;;;;;;2.17;1.80;;;11.90;99.90;;;;;;5074051;28;20266;-83
2023/06/01 02:01:50;;;;;;;2.83;2.27;;;12.10;99.90;;;;;;5091643;28;20192;-83
2023/06/01 02:04:15;;;;;;;3.37;2.03;;;12.20;1.00;;;;;;5092202;28;20675;-83
2023/06/01 02:06:41;;;;;;;2.50;1.97;;;12.30;1.00;;;;;;5074136;28;20183;-83
2023/06/01 02:09:07;;;;;;;2.50;2.00;;;12.40;1.00;;;;;;5073827;28;20190;-83
2023/06/01 02:11:36;;;;;;;2.80;2.10;;;12.60;1.00;;;;;;5073437;28;20173;-83
2023/06/01 02:14:02;;;;;;;3.00;2.07;;;12.70;99.90;;;;;;5091946;28;20202;-83
2023/06/01 02:16:28;;;;;;;2.17;1.97;;;12.50;1.00;;;;;;5073846;28;20239;-83
2023/06/01 02:18:53;;;;;;;3.33;2.17;;;12.40;1.00;;;;;;5074298;28;20173;-83
2023/06/01 02:21:19;;;;;;;3.60;2.10;;;12.10;99.90;;;;;;5085338;28;20193;-84
2023/06/01 02:23:45;;;;;;;3.90;2.10;;;11.80;25.00;;;;;;5087416;28;20199;-83
2023/06/01 02:26:10;;;;;;;2.83;2.13;;;11.80;99.90;;;;;;5093817;28;20172;-83
2023/06/01 02:28:38;;;;;;;2.30;1.97;;;11.80;99.90;;;;;;5077746;28;20244;-83
2023/06/01 02:31:05;;;;;;;2.53;2.03;;;11.80;1.00;;;;;;5090848;28;20659;-83
2023/06/01 02:33:30;;;;;;;3.70;2.00;;;11.70;1.00;;;;;;5094717;28;20207;-83
2023/06/01 02:35:56;;;;;;;3.60;2.10;;;11.60;1.00;;;;;;5095381;28;20195;-83
2023/06/01 02:38:21;;;;;;;3.27;2.17;;;11.60;95.90;;;;;;5087929;28;20184;-83
2023/06/01 02:40:47;;;;;;;2.77;1.97;;;11.50;95.90;;;;;;5076773;28;20546;-83
2023/06/01 02:43:13;;;;;;;2.57;1.97;;;11.50;1.00;;;;;;5077340;28;20234;-83
2023/06/01 02:45:39;;;;;;;2.27;1.67;;;11.70;1.00;;;;;;5077003;28;20255;-83
2023/06/01 02:48:05;;;;;;;4.07;1.83;;;11.70;1.00;;;;;;5095633;28;20251;-83
2023/06/01 02:50:30;;;;;;;2.20;2.00;;;11.90;99.90;;;;;;5094895;28;20172;-83
2023/06/01 02:52:56;;;;;;;4.90;2.00;;;12.00;1.00;;;;;;5077033;28;20198;-83
2023/06/01 02:55:21;;;;;;;2.80;2.10;;;11.70;99.90;;;;;;5095304;28;20341;-83
2023/06/01 02:57:47;;;;;;;3.40;2.30;;;11.60;1.00;;;;;;5077117;28;20168;-83
2023/06/01 03:00:17;;;;;;;3.37;2.40;;;11.50;1.00;;;;;;5076369;28;20164;-83
2023/06/01 03:02:43;;;;;;;3.37;2.10;;;11.40;4.60;;;;;;5095231;28;20192;-83
2023/06/01 03:05:11;;;;;;;2.37;2.17;;;11.20;99.90;;;;;;5095071;28;20259;-83
2023/06/01 03:07:37;;;;;;;4.03;2.10;;;11.30;1.00;;;;;;5076759;28;20215;-83
2023/06/01 03:10:03;;;;;;;2.03;1.83;;;11.40;99.90;;;;;;5094262;28;20214;-85
2023/06/01 03:12:28;;;;;;;3.97;2.33;;;11.30;99.90;;;;;;5094839;28;20204;-83
2023/06/01 03:14:54;;;;;;;3.23;2.10;;;11.10;99.90;;;;;;5074633;28;20193;-83
2023/06/01 03:17:19;;;;;;;2.47;1.90;;;11.10;52.00;;;;;;5076534;28;20262;-83
2023/06/01 03:19:45;;;;;;;2.80;2.00;;;11.20;1.00;;;;;;5076164;28;20183;-83
2023/06/01 03:22:10;;;;;;;3.10;2.00;;;11.40;1.00;;;;;;5076415;28;20191;-83
2023/06/01 03:24:36;;;;;;;2.90;1.83;;;11.50;1.00;;;;;;5076409;28;20180;-83
2023/06/01 03:27:02;;;;;;;2.50;2.20;;;11.60;1.00;;;;;;5094610;28;20254;-83
2023/06/01 03:29:28;;;;;;;2.33;1.90;;;11.60;99.90;;;;;;5088903;28;20176;-83
2023/06/01 03:31:54;;;;;;;4.20;2.00;;;11.70;99.90;;;;;;5093984;28;20249;-83
2023/06/01 03:34:20;;;;;;;2.50;1.97;;;11.60;99.90;;;;;;5094573;28;20248;-83
2023/06/01 03:36:47;;;;;;;4.37;2.10;;;11.60;1.00;;;;;;5076199;28;20612;-83
2023/06/01 03:39:15;;;;;;;2.40;2.13;;;11.20;1.00;;;;;;5094150;28;20593;-83
2023/06/01 03:41:42;;;;;;;2.67;1.90;;;11.20;1.00;;;;;;5075825;28;20627;-83
2023/06/01 03:44:08;;;;;;;4.63;2.30;;;11.40;99.90;;;;;;5075922;28;20218;-84
2023/06/01 03:46:33;;;;;;;2.87;1.97;;;11.50;99.90;;;;;;5094079;28;20169;-83
2023/06/01 03:48:59;;;;;;;2.87;2.00;;;11.70;1.00;;;;;;5076040;28;20168;-83
2023/06/01 03:51:25;;;;;;;2.43;2.00;;;11.90;11.40;;;;;;5075457;28;20213;-83
2023/06/01 03:53:51;;;;;;;3.13;1.80;;;11.80;1.00;;;;;;5075906;28;20292;-83
2023/06/01 03:56:17;;;;;;;3.53;1.80;;;11.80;1.00;;;;;;5075858;28;20202;-83
2023/06/01 03:58:42;;;;;;;2.10;1.90;;;11.80;1.00;;;;;;5075846;28;20635;-84
2023/06/01 04:01:10;;;;;;;4.17;2.20;;;11.80;99.90;;;;;;5075248;28;20275;-83
2023/06/01 04:03:36;;;;;;;2.07;1.87;;;12.00;99.90;;;;;;5093774;28;20193;-83
2023/06/01 04:06:03;;;;;;;3.53;1.90;;;11.70;1.00;;;;;;5075690;28;20556;-83
2023/06/01 04:08:29;;;;;;;2.30;2.00;;;11.60;99.90;;;;;;5075710;28;20177;-83
2023/06/01 04:10:55;;;;;;;3.07;2.20;;;11.40;1.00;;;;;;5093257;28;20202;-83
2023/06/01 04:13:20;;;;;;;2.87;2.07;;;11.30;99.90;;;;;;5093327;28;20200;-83
2023/06/01 04:15:47;;;;;;;2.13;1.77;;;11.20;1.00;;;;;;5075525;28;20203;-83
2023/06/01 04:18:13;;;;;;;2.67;2.10;;;11.20;1.00;;;;;;5075490;28;20183;-83
2023/06/01 04:20:38;;;;;;;3.40;1.90;;;11.30;1.00;;;;;;5093004;28;20169;-83
2023/06/01 04:23:04;;;;;;;2.90;2.10;;;11.30;22.40;;;;;;5075482;28;20229;-83
2023/06/01 04:25:30;;;;;;;3.10;1.90;;;11.20;99.30;;;;;;5075458;28;20199;-84
2023/06/01 04:27:55;;;;;;;2.23;1.80;;;11.40;99.90;;;;;;5093431;28;20199;-83
2023/06/01 04:30:22;;;;;;;3.43;1.87;;;11.60;1.00;;;;;;5074912;28;20586;-83
2023/06/01 04:32:48;;;;;;;2.90;1.70;;;11.50;1.00;;;;;;5075208;28;20210;-83
2023/06/01 04:35:14;;;;;;;3.87;2.17;;;11.50;1.00;;;;;;5093188;28;20200;-83
2023/06/01 04:37:40;;;;;;;2.70;2.07;;;11.60;1.00;;;;;;5075268;28;20631;-83
2023/06/01 04:40:10;;;;;;;3.97;1.90;;;11.60;1.00;;;;;;5074255;28;20172;-83
2023/06/01 04:42:42;;;;;;;2.20;2.00;;;11.60;1.00;;;;;;5092698;28;20652;-85
2023/06/01 04:45:11;;;;;;;3.07;1.90;;;11.70;1.00;;;;;;5075080;28;20256;-81
2023/06/01 04:47:39;;;;;;;2.37;1.80;;;11.60;99.90;;;;;;5074992;28;20219;-81
2023/06/01 04:50:09;;;;;;;2.90;2.10;;;11.60;99.90;;;;;;5092435;28;20292;-81
2023/06/01 04:52:35;;;;;;;4.17;2.10;;;11.60;99.90;;;;;;5074901;28;20199;-81
2023/06/01 04:55:04;;;;;;;3.20;2.07;;;11.70;99.90;;;;;;5074843;28;20208;-81
2023/06/01 04:57:30;;;;;;;3.20;2.13;;;11.70;1.00;;;;;;5074775;28;20193;-82
2023/06/01 04:59:56;;;;;;;3.00;2.10;;;11.70;99.90;;;;;;5092317;28;20167;-81
2023/06/01 05:02:23;;;;;;;2.93;2.10;;;11.70;99.90;;;;;;5092900;28;20188;-80
2023/06/01 05:04:49;;;;;;;2.73;2.20;;;11.70;1.00;;;;;;5093303;28;20200;-81
2023/06/01 05:07:15;;;;;;;2.87;2.10;;;11.90;1.00;;;;;;5075129;28;20656;-82
2023/06/01 05:09:40;;;;;;;5.13;2.53;;;11.80;1.00;;;;;;5075062;28;20182;-82
2023/06/01 05:12:07;;;;;;;3.30;2.50;;;11.80;1.00;;;;;;5075362;28;20261;-81
2023/06/01 05:14:32;;;;;;;2.50;2.23;;;11.80;1.00;;;;;;5093089;28;20293;-81
2023/06/01 05:16:58;;;;;;;5.03;2.50;;;11.90;99.90;;;;;;5075572;28;20198;-81
2023/06/01 05:19:23;;;;;;;3.43;2.20;;;11.90;99.90;;;;;;5075105;28;20200;-81
2023/06/01 05:21:49;;;;;;;3.67;2.60;;;12.10;95.80;;;;;;5074634;28;20258;-81
2023/06/01 05:24:14;;;;;;;4.90;3.00;;;12.20;1.00;;;;;;5075286;28;20179;-82
2023/06/01 05:26:40;;;;;;;4.70;3.10;;;12.30;99.90;;;;;;5093198;28;20225;-81
2023/06/01 05:29:05;;;;;;;5.23;3.10;;;12.40;99.90;;;;;;5093849;28;20255;-81
2023/06/01 05:31:31;;;;;;;5.73;3.47;;;12.50;99.90;;;;;;5092967;28;20174;-82
2023/06/01 05:33:57;;;;;;;9.77;4.37;;;12.70;1.00;;;;;;5075068;28;20206;-81
2023/06/01 05:36:22;;;;;;;5.00;3.93;;;12.80;1.00;;;;;;5093377;28;20176;-82
2023/06/01 05:38:48;;;;;;;6.63;3.87;;;12.90;1.00;;;;;;5075026;28;20164;-81
2023/06/01 05:41:14;;;;;;;5.83;3.50;;;12.90;1.00;;;;;;5092944;28;20542;-81
2023/06/01 05:43:39;;;;;;;3.90;2.90;;;13.00;1.00;;;;;;5074530;28;20211;-82
2023/06/01 05:46:06;;;;;;;4.80;3.40;;;13.10;1.00;;;;;;5075242;28;20171;-82
2023/06/01 05:48:32;;;;;;;4.10;3.30;;;13.20;1.00;;;;;;5075116;28;20207;-81
2023/06/01 05:50:57;;;;;;;5.30;3.43;;;13.20;1.00;;;;;;5092626;28;20211;-81
2023/06/01 05:53:24;;;;;;;5.03;3.27;;;13.30;1.00;;;;;;5074326;28;20199;-86
2023/06/01 05:55:51;;;;;;;6.57;3.13;;;13.30;99.90;;;;;;5074449;28;20537;-82
2023/06/01 05:58:17;;;;;;;4.63;3.20;;;13.30;1.00;;;;;;5092485;28;20594;-80
2023/06/01 06:00:42;;;;;;;5.10;3.30;;;13.30;1.00;;;;;;5092971;28;20635;-80
2023/06/01 06:03:08;;;;;;;4.70;3.40;;;13.30;1.00;;;;;;5078297;28;20210;-84
2023/06/01 06:05:33;;;;;;;5.20;3.33;;;13.40;1.00;;;;;;5094642;28;20275;-83
2023/06/01 06:07:59;;;;;;;5.57;3.33;;;13.60;75.80;;;;;;5078027;28;20183;-83
2023/06/01 06:10:25;;;;;;;3.90;2.90;;;13.60;1.00;;;;;;5098266;28;20179;-81
2023/06/01 06:12:50;;;;;;;4.73;3.10;;;13.70;1.00;;;;;;5081436;28;20203;-81
2023/06/01 06:15:16;;;;;;;4.10;3.20;;;13.90;1.00;;;;;;5099657;28;20204;-82
2023/06/01 06:17:42;;;;;;;4.10;3.30;;;13.90;99.90;;;;;;5100588;28;20170;-83
2023/06/01 06:20:08;;;;;;;7.57;3.50;;;13.90;99.90;;;;;;5099649;28;20172;-81
2023/06/01 06:22:34;;;;;;;4.73;3.27;;;14.00;38.80;;;;;;5081514;28;20283;-82
2023/06/01 06:25:00;;;;;;;3.90;3.30;;;14.20;1.00;;;;;;5099603;28;20186;-82
2023/06/01 06:27:26;;;;;;;6.03;3.17;;;14.30;99.90;;;;;;5081494;28;20177;-82
2023/06/01 06:29:52;;;;;;;5.60;2.90;;;14.40;1.00;;;;;;5098805;28;20180;-82
2023/06/01 06:32:19;;;;;;;4.17;3.20;;;14.50;1.00;;;;;;5081126;28;20200;-82
2023/06/01 06:34:45;;;;;;;4.47;2.83;;;14.60;99.90;;;;;;5081359;28;20200;-81
2023/06/01 06:37:11;;;;;;;3.83;3.33;;;14.70;25.10;;;;;;5081198;28;20230;-83
2023/06/01 06:39:37;;;;;;;7.50;3.20;;;14.80;1.00;;;;;;5081218;28;20194;-79
2023/06/01 06:42:03;;;;;;;4.27;3.00;;;14.90;1.00;;;;;;5153151;22;20196;-81
2023/06/01 06:44:29;;;;;;;4.23;2.87;;;15.00;1.00;;;;;;5101145;28;20702;-81
2023/06/01 06:46:55;;;;;;;4.40;2.80;;;15.00;99.90;;;;;;5082337;28;20200;-81
2023/06/01 06:49:20;;;;;;;4.87;3.07;;;15.10;99.90;;;;;;5101635;28;20179;-81
2023/06/01 06:51:46;;;;;;;4.73;2.73;;;15.10;31.90;;;;;;5081896;28;20222;-81
2023/06/01 06:54:12;;;;;;;5.47;2.67;;;15.30;99.90;;;;;;5082755;28;20200;-83
2023/06/01 06:56:37;;;;;;;3.83;2.80;;;15.40;1.00;;;;;;5083746;28;20176;-81
2023/06/01 06:59:03;;;;;;;4.50;2.67;;;15.50;99.90;;;;;;5080974;28;20180;-83
2023/06/01 07:01:29;;;;;;;3.80;2.40;;;15.60;1.00;;;;;;5079793;28;20257;-83
2023/06/01 07:03:55;;;;;;;4.97;2.57;;;15.70;1.00;;;;;;5098793;28;20207;-84
2023/06/01 07:06:22;;;;;;;3.80;2.40;;;15.80;99.90;;;;;;5080394;28;20202;-83
2023/06/01 07:08:48;;;;;;;3.60;2.40;;;16.00;95.30;;;;;;5081217;28;20180;-84
2023/06/01 07:11:14;;;;;;;3.93;2.10;;;16.20;1.00;;;;;;5098087;28;20685;-84
2023/06/01 07:13:39;;;;;;;3.00;2.20;;;16.30;99.90;;;;;;5099258;28;20196;-83
2023/06/01 07:16:05;;;;;;;3.07;2.30;;;16.40;77.40;;;;;;5079951;28;20658;-84
2023/06/01 07:18:31;;;;;;;3.63;2.37;;;16.60;1.00;;;;;;5079981;28;20173;-84
2023/06/01 07:20:57;;;;;;;4.23;2.17;;;16.80;1.00;;;;;;5092526;28;20184;-84
2023/06/01 07:23:23;;;;;;;5.83;2.20;;;16.90;99.90;;;;;;5071306;28;20204;-84
2023/06/01 07:25:49;;;;;;;4.73;2.30;;;17.10;99.90;;;;;;5078791;28;20173;-83
2023/06/01 07:28:15;;;;;;;3.00;2.00;;;17.30;1.00;;;;;;5061266;28;20177;-82
2023/06/01 07:30:41;;;;;;;5.00;2.13;;;17.40;1.00;;;;;;5067900;28;20168;-84
2023/06/01 07:33:07;;;;;;;3.27;1.70;;;17.50;99.90;;;;;;5063731;28;20200;-84
2023/06/01 07:35:33;;;;;;;6.10;2.57;;;17.70;1.00;;;;;;5070727;28;20963;-84
2023/06/01 07:38:00;;;;;;;4.47;2.10;;;17.80;99.90;;;;;;5092868;28;20254;-84
2023/06/01 07:40:25;;;;;;;3.57;2.23;;;17.90;99.90;;;;;;5075217;28;20240;-84
2023/06/01 07:42:51;;;;;;;3.37;2.30;;;18.00;1.00;;;;;;5097385;28;20231;-84
2023/06/01 07:45:17;;;;;;;2.43;2.07;;;18.10;1.00;;;;;;5079513;28;20222;-84
2023/06/01 07:47:42;;;;;;;3.77;2.33;;;18.20;99.90;;;;;;5079320;28;20175;-84
2023/06/01 07:50:08;;;;;;;3.57;1.93;;;18.30;99.90;;;;;;5079534;28;20544;-84
2023/06/01 07:52:34;;;;;;;3.03;2.20;;;18.40;99.90;;;;;;5080385;28;20200;-84
2023/06/01 07:55:00;;;;;;;3.17;2.30;;;18.50;99.90;;;;;;5067208;28;20284;-84
2023/06/01 07:57:25;;;;;;;3.50;2.23;;;18.60;99.90;;;;;;5060822;28;20208;-83
2023/06/01 07:59:51;;;;;;;6.23;2.70;;;18.70;99.90;;;;;;5078891;28;20180;-85
2023/06/01 08:02:17;;;;;;;3.10;2.30;;;18.80;99.90;;;;;;5097346;28;20237;-84
2023/06/01 08:04:44;;;;;;;3.43;2.20;;;18.90;99.90;;;;;;5097707;28;20168;-83
2023/06/01 08:07:12;;;;;;;2.93;2.20;;;19.00;99.90;;;;;;5083858;28;20180;-83
2023/06/01 08:09:38;;;;;;;2.47;2.10;;;19.20;1.00;;;;;;5100406;28;20173;-83
2023/06/01 08:12:05;;;;;;;3.37;2.10;;;19.40;99.90;;;;;;5083256;28;20240;-84
2023/06/01 08:14:33;;;;;;;3.27;2.20;;;19.50;1.00;;;;;;5080654;28;20195;-86
2023/06/01 08:17:01;;;;;;;5.20;2.20;;;19.70;1.00;;;;;;5081361;28;20232;-85
2023/06/01 08:19:27;;;;;;;4.67;2.30;;;19.70;71.60;;;;;;5061878;28;20168;-86
2023/06/01 08:21:53;;;;;;;3.07;1.90;;;19.80;1.00;;;;;;5082072;28;20232;-83
2023/06/01 08:24:24;;;;;;;3.83;2.37;;;19.90;99.90;;;;;;5077837;28;20184;-84
2023/06/01 08:26:50;;;;;;;4.60;2.30;;;20.00;99.90;;;;;;5078255;28;20173;-83
2023/06/01 08:29:16;;;;;;;2.83;2.10;;;20.10;99.90;;;;;;5096274;28;20642;-83
2023/06/01 08:31:41;;;;;;;3.53;2.20;;;20.10;99.90;;;;;;5095926;28;20179;-84
2023/06/01 08:34:07;;;;;;;3.30;2.00;;;20.20;99.90;;;;;;5077983;28;20227;-80
2023/06/01 08:36:33;;;;;;;3.40;1.90;;;20.30;99.90;;;;;;5077193;28;20176;-83
2023/06/01 08:38:58;;;;;;;3.00;2.00;;;20.50;1.00;;;;;;5095970;28;20179;-83
2023/06/01 08:41:50;;;;;;;2.50;1.90;;;20.50;1.00;;;;;;5076354;28;20187;-83
2023/06/01 08:44:20;;;;;;;2.67;2.10;;;20.70;1.00;;;;;;5076038;28;20278;-83
2023/06/01 08:46:45;;;;;;;3.00;1.98;;;20.90;1.00;;;;;;5094778;28;20184;-83
2023/06/01 08:49:13;;;;;;;4.18;2.08;;;21.10;1.00;;;;;;5094469;28;20195;-85
2023/06/01 08:51:41;;;;;;;3.13;2.17;;;21.20;99.90;;;;;;5093453;28;20207;-83
2023/06/01 08:54:09;;;;;;;4.85;2.13;;;21.40;99.90;;;;;;5094727;28;20207;-84
2023/06/01 08:56:35;;;;;;;3.53;2.00;;;21.40;99.90;;;;;;5094572;28;20560;-84
2023/06/01 08:59:02;;;;;;;4.97;2.05;;;21.60;96.20;;;;;;5077641;28;20175;-84
2023/06/01 09:01:28;;;;;;;3.35;1.90;;;21.70;99.90;;;;;;5096337;28;20217;-82
2023/06/01 09:03:53;;;;;;;3.22;1.88;;;21.70;1.00;;;;;;5075516;28;20192;-82
2023/06/01 09:06:19;;;;;;;2.65;1.85;;;21.70;7.40;;;;;;5075793;28;20263;-85
2023/06/01 09:08:45;;;;;;;4.05;2.20;;;21.80;99.90;;;;;;5076092;28;20312;-86
2023/06/01 09:11:11;;;;;;;3.70;1.73;;;22.10;99.90;;;;;;5075925;28;20211;-84
2023/06/01 09:13:40;;;;;;;3.13;1.80;;;22.50;1.00;;;;;;5094400;28;20203;-86
2023/06/01 09:16:06;;;;;;;3.15;1.88;;;22.70;1.00;;;;;;5094702;28;20188;-84
2023/06/01 09:18:32;;;;;;;4.28;2.00;;;22.90;1.00;;;;;;5095236;28;20218;-84
2023/06/01 09:21:15;;;;;;;3.45;2.00;;;23.00;1.00;;;;;;5096440;28;20168;-82
2023/06/01 09:23:42;;;;;;;4.82;1.90;;;23.00;1.00;;;;;;5079647;28;20191;-83
2023/06/01 09:26:10;;;;;;;3.40;2.03;;;23.20;1.00;;;;;;5080927;28;20262;-82
2023/06/01 09:29:03;;;;;;;2.58;1.88;;;23.20;1.00;;;;;;5099095;28;20176;-82
2023/06/01 09:31:48;;;;;;;3.28;2.10;;;23.30;1.00;;;;;;5076399;28;20200;-82
2023/06/01 09:34:19;;;;;;;4.22;2.05;;;23.40;1.00;;;;;;5079905;28;20317;-82
2023/06/01 09:36:55;;;;;;;2.70;1.90;;;23.40;1.00;;;;;;5060917;28;20176;-82
2023/06/01 09:39:23;;;;;;;2.72;2.00;;;23.40;1.00;;;;;;5060760;28;20161;-83
2023/06/01 09:41:49;;;;;;;3.67;2.10;;;23.40;1.00;;;;;;5060359;28;20219;-83
2023/06/01 09:44:32;;;;;;;3.03;1.80;;;23.40;1.00;;;;;;5079264;28;20201;-82
2023/06/01 09:47:14;;;;;;;2.22;1.60;;;23.40;1.00;;;;;;5078789;28;20157;-82
2023/06/01 09:49:42;;;;;;;3.67;1.67;;;23.50;1.00;;;;;;5078750;28;20154;-82
2023/06/01 09:52:09;;;;;;;2.53;1.65;;;23.70;1.00;;;;;;5060812;28;20283;-82
2023/06/01 09:54:42;;;;;;;2.08;1.40;;;23.90;99.90;;;;;;5078580;28;20607;-84
2023/06/01 09:57:08;;;;;;;3.38;1.90;;;23.80;99.90;;;;;;5080066;28;20195;-82
2023/06/01 09:59:41;;;;;;;2.03;1.50;;;23.80;99.90;;;;;;5060363;28;20184;-82
2023/06/01 10:02:11;;;;;;;4.03;2.33;;;23.90;99.90;;;;;;5060477;28;20262;-84
2023/06/01 10:04:39;;;;;;;4.90;1.80;;;24.10;99.90;;;;;;5078386;28;20257;-82
2023/06/01 10:07:05;;;;;;;2.67;1.70;;;24.20;99.90;;;;;;5059212;28;20604;-83
2023/06/01 10:09:33;;;;;;;3.85;1.70;;;24.50;99.90;;;;;;5077479;28;20165;-83
2023/06/01 10:11:59;;;;;;;2.92;1.70;;;24.80;99.90;;;;;;5059414;28;20604;-82
2023/06/01 10:14:25;;;;;;;4.15;1.80;;;24.90;99.90;;;;;;5077400;28;20197;-82
2023/06/01 10:16:52;;;;;;;5.65;1.80;;;25.00;99.90;;;;;;5079306;28;20165;-82
2023/06/01 10:19:20;;;;;;;3.65;1.98;;;25.10;99.90;;;;;;5078037;28;20223;-82
2023/06/01 10:21:46;;;;;;;2.92;2.03;;;25.10;99.90;;;;;;5061905;28;20173;-83
2023/06/01 10:24:13;;;;;;;3.50;1.77;;;25.10;99.90;;;;;;5076535;28;20195;-82
2023/06/01 10:26:51;;;;;;;2.83;1.90;;;25.20;99.90;;;;;;5076391;28;20179;-83
2023/06/01 10:29:18;;;;;;;2.88;1.90;;;25.40;99.90;;;;;;5059254;28;20175;-83
2023/06/01 10:31:44;;;;;;;2.50;2.03;;;25.20;99.90;;;;;;5057977;28;20169;-84
2023/06/01 10:34:11;;;;;;;3.97;1.75;;;24.90;99.90;;;;;;5079923;28;20250;-84
2023/06/01 10:37:03;;;;;;;4.20;2.00;;;25.10;99.90;;;;;;5076176;28;20162;-84
2023/06/01 10:39:33;;;;;;;1.95;1.73;;;25.50;99.90;;;;;;5053297;28;20230;-83
2023/06/01 10:42:19;;;;;;;2.20;1.75;;;25.50;99.90;;;;;;5057508;28;20187;-84
2023/06/01 10:44:51;;;;;;;3.55;1.90;;;25.60;99.90;;;;;;5073522;28;20188;-84
2023/06/01 10:47:17;;;;;;;2.83;1.90;;;25.70;99.90;;;;;;5057856;28;20201;-85
2023/06/01 10:49:48;;;;;;;2.50;1.80;;;25.80;99.90;;;;;;5076930;28;20211;-84
2023/06/01 10:52:23;;;;;;;2.90;1.90;;;25.60;99.90;;;;;;5060584;28;20280;-84
2023/06/01 10:54:49;;;;;;;3.95;1.92;;;25.60;99.90;;;;;;5059777;28;20235;-83
2023/06/01 10:57:25;;;;;;;4.63;2.13;;;25.70;99.90;;;;;;5076807;28;20172;-84
2023/06/01 11:00:16;;;;;;;2.33;1.80;;;26.10;99.90;;;;;;5058443;28;20169;-84
2023/06/01 11:02:59;;;;;;;2.70;1.70;;;26.20;99.90;;;;;;5077177;28;20249;-83
2023/06/01 11:05:48;;;;;;;2.47;1.83;;;26.50;99.90;;;;;;5058421;28;20196;-83
2023/06/01 11:08:17;;;;;;;3.13;1.85;;;26.60;99.90;;;;;;5058454;28;20177;-83
2023/06/01 11:10:51;;;;;;;3.85;1.85;;;26.40;99.90;;;;;;5075750;28;20195;-83
2023/06/01 11:13:39;;;;;;;2.42;1.95;;;26.50;99.90;;;;;;5075962;28;20218;-84
2023/06/01 11:16:09;;;;;;;3.65;2.00;;;26.70;99.90;;;;;;5058033;28;20217;-83
2023/06/01 11:18:49;;;;;;;2.60;1.95;;;27.10;99.90;;;;;;5079503;28;20259;-84
2023/06/01 11:21:17;;;;;;;2.97;1.80;;;27.30;99.90;;;;;;5093914;28;20164;-84
2023/06/01 11:23:44;;;;;;;4.32;2.00;;;27.60;99.90;;;;;;5073173;28;20189;-84
2023/06/01 11:26:13;;;;;;;3.10;1.80;;;27.50;99.90;;;;;;5069587;28;20172;-84
2023/06/01 11:28:39;;;;;;;2.38;2.08;;;27.50;99.90;;;;;;5076924;28;20184;-84
2023/06/01 11:31:10;;;;;;;2.47;1.83;;;27.40;99.90;;;;;;5076462;28;20168;-86
2023/06/01 11:33:38;;;;;;;2.65;2.00;;;27.10;99.90;;;;;;5094967;28;20651;-84
2023/06/01 11:36:05;;;;;;;2.95;2.08;;;26.80;99.90;;;;;;5076895;28;20172;-84
2023/06/01 11:38:43;;;;;;;3.63;1.83;;;27.10;99.90;;;;;;5095201;28;20738;-84
2023/06/01 11:41:09;;;;;;;2.90;1.80;;;27.60;99.90;;;;;;5076064;28;20711;-84
2023/06/01 11:43:35;;;;;;;2.58;2.00;;;27.80;99.90;;;;;;5076586;28;20310;-83
2023/06/01 11:46:06;;;;;;;4.72;1.80;;;27.70;99.90;;;;;;5076474;28;20649;-84
2023/06/01 11:48:35;;;;;;;2.50;1.63;;;27.80;99.90;;;;;;5076566;28;20173;-84
2023/06/01 11:51:03;;;;;;;2.92;1.85;;;28.00;99.90;;;;;;5081493;28;20210;-84
2023/06/01 11:53:32;;;;;;;2.78;1.98;;;28.50;99.90;;;;;;5075334;28;20660;-83
2023/06/01 11:55:58;;;;;;;2.50;2.00;;;28.60;99.90;;;;;;5075065;28;20173;-83
2023/06/01 11:58:25;;;;;;;2.60;2.08;;;28.80;99.90;;;;;;5076915;28;20189;-83
2023/06/01 12:00:55;;;;;;;2.53;2.00;;;28.70;99.90;;;;;;5075638;28;20173;-84
2023/06/01 12:03:24;;;;;;;2.10;1.80;;;28.60;99.90;;;;;;5076069;28;20188;-82
2023/06/01 12:05:50;;;;;;;2.10;1.90;;;28.70;99.90;;;;;;5078073;28;20212;-83
2023/06/01 12:08:21;;;;;;;3.45;2.00;;;28.90;99.90;;;;;;5076899;28;20263;-83
2023/06/01 12:10:50;;;;;;;3.53;1.67;;;28.70;99.90;;;;;;5077379;28;20227;-85
2023/06/01 12:13:16;;;;;;;3.20;2.00;;;28.50;99.90;;;;;;5078025;28;20181;-83
2023/06/01 12:15:42;;;;;;;2.85;1.85;;;28.80;99.90;;;;;;5078195;28;20192;-83
2023/06/01 12:18:08;;;;;;;1.90;1.70;;;28.90;99.90;;;;;;5079052;28;20172;-83
2023/06/01 12:20:39;;;;;;;4.03;1.80;;;29.20;99.90;;;;;;5090438;28;20181;-83
2023/06/01 12:23:14;;;;;;;2.40;1.90;;;29.20;99.90;;;;;;5081142;28;20200;-83
2023/06/01 12:25:58;;;;;;;4.90;2.53;;;29.50;99.90;;;;;;5078927;28;20199;-84
2023/06/01 12:28:25;;;;;;;2.65;1.70;;;29.80;99.90;;;;;;5079658;28;20187;-84
2023/06/01 12:31:10;;;;;;;4.60;2.00;;;30.00;99.90;;;;;;5079209;28;20168;-83
2023/06/01 12:33:36;;;;;;;3.17;1.63;;;29.70;99.90;;;;;;5078874;28;20195;-83
2023/06/01 12:36:07;;;;;;;2.22;1.70;;;29.60;99.90;;;;;;5079478;28;20177;-83
2023/06/01 12:38:37;;;;;;;3.05;1.88;;;29.80;99.90;;;;;;5090891;28;20267;-82
2023/06/01 12:41:11;;;;;;;1.98;1.70;;;30.00;99.90;;;;;;5094215;28;20183;-80
2023/06/01 12:43:37;;;;;;;2.67;1.83;;;30.10;99.90;;;;;;5097464;22;20252;-80
2023/06/01 12:46:06;;;;;;;1.90;1.70;;;30.10;99.90;;;;;;5036392;28;20557;-81
2023/06/01 12:48:33;;;;;;;2.03;1.60;;;30.30;99.90;;;;;;5053817;28;20170;-80
2023/06/01 12:50:59;;;;;;;1.65;1.48;;;29.90;99.90;;;;;;5035697;28;20169;-79
2023/06/01 12:53:24;;;;;;;2.58;1.63;;;29.10;99.90;;;;;;5051053;28;20194;-80
2023/06/01 12:55:50;;;;;;;2.28;1.60;;;28.70;99.90;;;;;;5043920;28;20295;-80